createdAt,value
2019-03-05T00:00:17.703Z,15.16
2019-03-05T00:03:47.830Z,16.09
2019-03-05T00:07:17.947Z,13.12
2019-03-05T00:10:48.064Z,6.41
2019-03-05T00:14:18.960Z,7.2
2019-03-05T00:17:49.198Z,9.35
2019-03-05T00:21:19.194Z,7.04
2019-03-05T00:24:59.134Z,9.28
2019-03-05T00:30:47.007Z,4.18
2019-03-05T00:34:25.164Z,5.64
2019-03-05T00:38:04.275Z,12.89
2019-03-05T00:41:50.647Z,13.03
2019-03-05T00:45:53.143Z,13.06
2019-03-05T00:49:35.290Z,11.74
2019-03-05T00:53:39.327Z,8.06
2019-03-05T00:57:21.673Z,13.7
2019-03-05T01:07:09.837Z,11.61
2019-03-05T01:10:39.951Z,15.3
2019-03-05T01:14:10.598Z,8.44
2019-03-05T01:17:41.705Z,11.88
2019-03-05T01:21:11.823Z,14.9
2019-03-05T01:24:42.239Z,8.11
2019-03-05T01:28:12.287Z,9.6
2019-03-05T01:31:54.243Z,9.78
2019-03-05T01:35:32.539Z,18.08
2019-03-05T01:39:12.828Z,7.42
2019-03-05T01:42:42.893Z,15.94
2019-03-05T01:46:12.950Z,15.15
2019-03-05T01:49:43.157Z,15.05
2019-03-05T01:53:13.204Z,12.06
2019-03-05T01:56:43.261Z,7.4
2019-03-05T02:00:14.808Z,7.6
2019-03-05T02:03:44.965Z,15.61
2019-03-05T02:07:15.681Z,19.67
2019-03-05T02:10:45.859Z,12
2019-03-05T02:14:15.905Z,17.6
2019-03-05T02:17:46.943Z,17.06
2019-03-05T02:21:17.125Z,15.51
2019-03-05T02:24:57.333Z,12.61
2019-03-05T02:31:47.412Z,12.48
2019-03-05T02:36:00.257Z,18.09
2019-03-05T02:39:37.354Z,16
2019-03-05T02:43:48.629Z,19.54
2019-03-05T02:52:41.702Z,8.19
2019-03-05T02:59:36.907Z,10.65
2019-03-05T03:03:16.153Z,13.16
2019-03-05T03:06:46.266Z,18.4
2019-03-05T03:10:19.755Z,13.99
2019-03-05T03:13:49.764Z,15.61
2019-03-05T03:17:19.771Z,7.33
2019-03-05T03:20:50.112Z,16.96
2019-03-05T03:24:20.127Z,10.8
2019-03-05T03:27:50.571Z,15.71
2019-03-05T03:31:20.613Z,16.26
2019-03-05T03:34:50.761Z,22.35
2019-03-05T03:38:20.809Z,17.99
2019-03-05T03:41:50.917Z,16.24
2019-03-05T03:45:22.261Z,20.31
2019-03-05T03:48:52.421Z,12.9
2019-03-05T03:52:22.453Z,28.24
2019-03-05T03:55:52.612Z,20.16
2019-03-05T03:59:22.782Z,19.32
2019-03-05T04:00:19.603Z,19.62
2019-03-05T04:03:49.842Z,21.04
2019-03-05T04:07:19.970Z,14.47
2019-03-05T04:10:50.065Z,13.47
2019-03-05T04:14:20.076Z,13.92
2019-03-05T04:17:50.294Z,16.09
2019-03-05T04:21:21.247Z,27.71
2019-03-05T04:24:51.273Z,12.38
2019-03-05T04:28:21.273Z,14.79
2019-03-05T04:31:51.429Z,22.8
2019-03-05T04:35:21.509Z,14.6
2019-03-05T04:38:51.580Z,14.99
2019-03-05T04:42:21.594Z,16.16
2019-03-05T04:46:32.092Z,12.82
2019-03-05T04:50:09.884Z,14.1
2019-03-05T04:53:39.933Z,18.41
2019-03-05T04:57:10.014Z,22.41
2019-03-05T05:00:40.214Z,18.68
2019-03-05T05:04:10.325Z,21.29
2019-03-05T05:07:40.376Z,13.39
2019-03-05T05:11:10.283Z,22.17
2019-03-05T05:14:40.339Z,12.07
2019-03-05T05:18:10.434Z,17.69
2019-03-05T05:21:41.431Z,21.12
2019-03-05T05:25:11.459Z,19.32
2019-03-05T05:28:41.570Z,26.96
2019-03-05T05:32:11.510Z,13.39
2019-03-05T05:35:41.571Z,22.59
2019-03-05T05:41:30.748Z,17.99
2019-03-05T05:45:00.833Z,27.82
2019-03-05T05:48:30.864Z,24.39
2019-03-05T05:52:00.875Z,21.74
2019-03-05T05:55:30.803Z,6.73
2019-03-05T05:59:00.926Z,25.96
2019-03-05T06:00:16.417Z,10.94
2019-03-05T06:03:46.427Z,20.25
2019-03-05T06:07:16.457Z,27.46
2019-03-05T06:10:46.879Z,20.86
2019-03-05T06:14:17.029Z,26.24
2019-03-05T06:17:47.156Z,17.85
2019-03-05T06:21:17.219Z,22.27
2019-03-05T06:24:49.081Z,26.89
2019-03-05T06:28:19.173Z,26.83
2019-03-05T06:31:49.282Z,24.92
2019-03-05T06:35:19.314Z,26.74
2019-03-05T06:38:49.494Z,15.65
2019-03-05T06:42:19.570Z,25.94
2019-03-05T06:45:49.727Z,12.51
2019-03-05T06:49:19.696Z,23.5
2019-03-05T06:52:49.809Z,17.86
2019-03-05T06:56:19.918Z,22.19
2019-03-05T06:59:49.982Z,24.64
2019-03-05T07:03:19.999Z,18.76
2019-03-05T07:06:52.000Z,24.05
2019-03-05T07:10:34.951Z,21.35
2019-03-05T07:14:09.799Z,22.25
2019-03-05T07:17:44.133Z,21.24
2019-03-05T07:23:51.025Z,17.82
2019-03-05T07:27:26.065Z,17.3
2019-03-05T07:30:56.166Z,11.84
2019-03-05T07:34:28.597Z,20.6
2019-03-05T07:37:58.845Z,21.09
2019-03-05T07:41:28.838Z,16.29
2019-03-05T07:44:58.907Z,17.73
2019-03-05T07:48:29.750Z,17.74
2019-03-05T07:52:00.001Z,16.81
2019-03-05T07:55:30.132Z,18.94
2019-03-05T07:59:00.264Z,14.31
2019-03-05T08:00:18.393Z,12.99
2019-03-05T08:03:48.424Z,10.62
2019-03-05T08:07:18.669Z,18.51
2019-03-05T08:10:48.806Z,21.38
2019-03-05T08:14:55.637Z,16.69
2019-03-05T08:18:25.749Z,21.99
2019-03-05T08:21:55.851Z,18.29
2019-03-05T08:25:25.950Z,12.4
2019-03-05T08:28:57.020Z,16.71
2019-03-05T08:32:27.093Z,21.14
2019-03-05T08:35:57.222Z,13.66
2019-03-05T08:39:27.313Z,16.65
2019-03-05T08:42:57.464Z,16.17
2019-03-05T08:46:27.545Z,17.01
2019-03-05T08:49:57.626Z,22.62
2019-03-05T08:53:27.607Z,17.56
2019-03-05T08:56:57.781Z,16.49
2019-03-05T09:00:28.049Z,21.95
2019-03-05T09:03:58.120Z,23.88
2019-03-05T09:07:28.271Z,12.53
2019-03-05T09:10:58.404Z,15.91
2019-03-05T09:14:28.503Z,16.58
2019-03-05T09:17:58.528Z,18.66
2019-03-05T09:21:28.632Z,15.18
2019-03-05T09:24:58.777Z,14.41
2019-03-05T09:28:28.867Z,14.81
2019-03-05T09:31:59.788Z,14.02
2019-03-05T09:35:29.878Z,16.59
2019-03-05T09:38:59.930Z,18.16
2019-03-05T09:42:39.595Z,12.74
2019-03-05T09:46:10.382Z,13.5
2019-03-05T09:49:40.453Z,9.65
2019-03-05T09:53:10.585Z,10.14
2019-03-05T09:56:40.625Z,12.04
2019-03-05T10:00:16.086Z,12.24
2019-03-05T10:03:46.201Z,8.96
2019-03-05T10:07:19.239Z,11.43
2019-03-05T10:10:49.650Z,9.24
2019-03-05T10:14:19.861Z,7.5
2019-03-05T10:17:50.250Z,9.38
2019-03-05T10:21:20.434Z,12.55
2019-03-05T10:24:50.564Z,9.71
2019-03-05T10:28:20.756Z,18.88
2019-03-05T10:31:50.846Z,7.9
2019-03-05T10:35:23.919Z,10.84
2019-03-05T10:38:57.560Z,11.5
2019-03-05T10:42:31.772Z,10
2019-03-05T10:46:02.302Z,9.88
2019-03-05T10:49:32.425Z,9.52
2019-03-05T10:53:02.863Z,10.11
2019-03-05T10:56:33.109Z,7.83
2019-03-05T11:00:05.166Z,8.47
2019-03-05T11:03:35.537Z,8.44
2019-03-05T11:07:05.948Z,8.89
2019-03-05T11:10:36.483Z,12.5
2019-03-05T11:14:06.583Z,11.98
2019-03-05T11:17:36.712Z,9.78
2019-03-05T11:21:06.979Z,6.86
2019-03-05T11:24:37.196Z,10.96
2019-03-05T11:28:07.337Z,11.49
2019-03-05T11:31:37.878Z,9.04
2019-03-05T11:35:08.188Z,10.57
2019-03-05T11:38:39.380Z,9.34
2019-03-05T11:42:09.456Z,8.2
2019-03-05T11:45:41.232Z,11.14
2019-03-05T11:49:11.354Z,9.74
2019-03-05T11:52:41.445Z,14.6
2019-03-05T11:56:11.567Z,8.59
2019-03-05T11:59:41.788Z,10.2
2019-03-05T12:00:19.489Z,15.55
2019-03-05T12:03:49.649Z,9.48
2019-03-05T12:07:19.701Z,9.29
2019-03-05T12:10:49.862Z,11.81
2019-03-05T12:14:19.971Z,11.2
2019-03-05T12:17:50.026Z,9.53
2019-03-05T12:21:20.156Z,11.36
2019-03-05T12:24:50.267Z,10.88
2019-03-05T12:28:20.329Z,9.69
2019-03-05T12:31:50.360Z,12.25
2019-03-05T12:35:20.574Z,9.62
2019-03-05T12:38:51.723Z,11.61
2019-03-05T12:42:21.874Z,11.12
2019-03-05T12:45:51.945Z,10.25
2019-03-05T12:49:21.997Z,10.2
2019-03-05T12:52:55.818Z,10.19
2019-03-05T12:56:25.939Z,11.41
2019-03-05T12:59:56.141Z,9.48
2019-03-05T13:03:26.292Z,9.39
2019-03-05T13:06:56.385Z,10.88
2019-03-05T13:10:26.497Z,10.3
2019-03-05T13:14:05.952Z,10.74
2019-03-05T13:17:38.558Z,8.41
2019-03-05T13:21:08.784Z,10.16
2019-03-05T13:24:38.952Z,11.06
2019-03-05T13:28:09.112Z,9.66
2019-03-05T13:31:42.065Z,10.79
2019-03-05T13:35:14.259Z,12.6
2019-03-05T13:38:45.210Z,8.41
2019-03-05T13:42:17.358Z,10.38
2019-03-05T13:45:49.473Z,9.38
2019-03-05T13:49:42.931Z,10.2
2019-03-05T13:54:48.410Z,9.75
2019-03-05T14:00:16.777Z,12.25
2019-03-05T14:03:52.807Z,9.3
2019-03-05T14:07:47.059Z,8.65
2019-03-05T14:11:17.167Z,9.33
2019-03-05T14:14:47.227Z,8.91
2019-03-05T14:18:17.256Z,10.49
2019-03-05T14:21:47.319Z,8.22
2019-03-05T14:25:17.344Z,7.6
2019-03-05T14:28:47.408Z,8.6
2019-03-05T14:32:17.532Z,8.34
2019-03-05T14:35:47.696Z,7.86
2019-03-05T14:39:21.400Z,9.22
2019-03-05T14:42:52.446Z,7.95
2019-03-05T14:46:22.596Z,8.36
2019-03-05T14:49:52.680Z,8.43
2019-03-05T14:53:22.902Z,7.45
2019-03-05T14:56:53.105Z,6.74
2019-03-05T15:00:23.448Z,10.75
2019-03-05T15:03:53.889Z,7.11
2019-03-05T15:07:24.223Z,15.94
2019-03-05T15:10:54.394Z,15.7
2019-03-05T15:14:24.503Z,13.09
2019-03-05T15:17:54.796Z,17.24
2019-03-05T15:21:24.907Z,17.92
2019-03-05T15:24:55.043Z,18.93
2019-03-05T15:28:25.054Z,25.58
2019-03-05T15:31:55.238Z,26.74
2019-03-05T15:35:25.368Z,29.62
2019-03-05T15:38:55.565Z,28.88
2019-03-05T15:42:28.631Z,15.56
2019-03-05T15:45:59.934Z,16.05
2019-03-05T15:49:30.088Z,7.36
2019-03-05T15:53:00.224Z,9.29
2019-03-05T15:56:30.312Z,12.54
2019-03-05T16:00:00.500Z,11.66
2019-03-05T16:00:19.522Z,14.4
2019-03-05T16:03:49.573Z,25.9
2019-03-05T16:07:19.814Z,26.02
2019-03-05T16:10:50.441Z,34.06
2019-03-05T16:14:24.064Z,45.6
2019-03-05T16:17:54.491Z,109.26
2019-03-05T16:21:24.735Z,120.38
2019-03-05T16:24:54.715Z,79.28
2019-03-05T16:28:24.766Z,52.34
2019-03-05T16:32:17.746Z,121
2019-03-05T16:39:38.112Z,78.88
2019-03-05T16:43:16.047Z,41.99
2019-03-05T16:47:14.936Z,25.79
2019-03-05T16:51:09.898Z,16.98
2019-03-05T16:54:47.378Z,14.7
2019-03-05T16:58:24.448Z,9.44
2019-03-05T17:03:05.360Z,10.69
2019-03-05T17:09:08.641Z,9.24
2019-03-05T17:12:38.830Z,7.51
2019-03-05T17:16:08.961Z,9.88
2019-03-05T17:19:39.340Z,11.12
2019-03-05T17:23:09.601Z,9.04
2019-03-05T17:26:39.689Z,9.85
2019-03-05T17:30:12.602Z,9.2
2019-03-05T17:33:42.627Z,9.48
2019-03-05T17:37:12.772Z,12.64
2019-03-05T17:40:42.903Z,10.65
2019-03-05T17:44:12.953Z,21.39
2019-03-05T17:47:43.974Z,14.31
2019-03-05T17:51:14.224Z,16.23
2019-03-05T17:54:44.314Z,12
2019-03-05T17:58:14.415Z,15.11
2019-03-05T18:00:21.614Z,12.71
2019-03-05T18:03:51.677Z,17
2019-03-05T18:07:21.800Z,14.49
2019-03-05T18:10:51.915Z,16.8
2019-03-05T18:14:22.041Z,10.71
2019-03-05T18:17:52.115Z,8.94
2019-03-05T18:21:22.176Z,12.41
2019-03-05T18:24:52.326Z,11.93
2019-03-05T18:28:22.567Z,8.39
2019-03-05T18:31:52.708Z,12.84
2019-03-05T18:35:22.671Z,9.16
2019-03-05T18:38:52.827Z,9.42
2019-03-05T18:42:22.777Z,10.89
2019-03-05T18:45:52.938Z,19.81
2019-03-05T18:49:24.028Z,20.26
2019-03-05T18:52:54.319Z,11.86
2019-03-05T18:56:24.289Z,12.75
2019-03-05T18:59:54.539Z,10.65
2019-03-05T19:03:24.749Z,11.11
2019-03-05T19:06:54.910Z,10.14
2019-03-05T19:10:25.051Z,8.99
2019-03-05T19:13:55.110Z,9.79
2019-03-05T19:17:25.331Z,10.51
2019-03-05T19:20:55.391Z,8.36
2019-03-05T19:24:25.461Z,11.93
2019-03-05T19:27:55.681Z,8.46
2019-03-05T19:31:26.154Z,9.82
2019-03-05T19:34:56.382Z,9.27
2019-03-05T19:38:26.492Z,11.84
2019-03-05T19:41:56.753Z,13.1
2019-03-05T19:45:26.953Z,10.78
2019-03-05T19:48:57.023Z,9.25
2019-03-05T19:52:28.124Z,11.24
2019-03-05T19:55:58.215Z,10.26
2019-03-05T19:59:30.011Z,9.9
2019-03-05T20:00:19.184Z,9.8
2019-03-05T20:03:49.375Z,9.09
2019-03-05T20:07:19.477Z,10.57
2019-03-05T20:10:49.534Z,12.2
2019-03-05T20:14:19.600Z,11.31
2019-03-05T20:17:58.501Z,12.5
2019-03-05T20:21:29.106Z,10.75
2019-03-05T20:24:59.306Z,12.55
2019-03-05T20:28:29.364Z,12.01
2019-03-05T20:31:59.437Z,13.1
2019-03-05T20:35:29.616Z,11.43
2019-03-05T20:38:59.867Z,11.74
2019-03-05T20:42:30.058Z,11.38
2019-03-05T20:46:05.028Z,11.39
2019-03-05T20:49:35.079Z,16.03
2019-03-05T20:53:06.178Z,12.16
2019-03-05T20:56:36.218Z,10.47
2019-03-05T21:00:18.829Z,12.76
2019-03-05T21:03:48.870Z,16.41
2019-03-05T21:07:19.000Z,13.96
2019-03-05T21:10:51.189Z,11.97
2019-03-05T21:15:02.888Z,12.21
2019-03-05T21:18:41.811Z,12.3
2019-03-05T21:22:29.540Z,10.5
2019-03-05T21:25:59.641Z,18.36
2019-03-05T21:29:29.774Z,13.62
2019-03-05T21:32:59.802Z,10.6
2019-03-05T21:36:29.902Z,13.51
2019-03-05T21:40:00.012Z,9.85
2019-03-05T21:43:30.082Z,11.34
2019-03-05T21:47:00.117Z,12.01
2019-03-05T21:50:30.172Z,11.88
2019-03-05T21:54:00.373Z,10.81
2019-03-05T21:57:30.474Z,12.9
2019-03-05T22:00:18.934Z,15.67
2019-03-05T22:03:49.194Z,14.01
2019-03-05T22:07:19.244Z,10.09
2019-03-05T22:10:51.434Z,10.46
2019-03-05T22:14:21.727Z,5.69
2019-03-05T22:17:51.929Z,4.97
2019-03-05T22:21:22.087Z,4.97
2019-03-05T22:24:52.126Z,4.25
2019-03-05T22:28:22.156Z,2.94
2019-03-05T22:31:52.499Z,2.3
2019-03-05T22:35:22.626Z,5.22
2019-03-05T22:38:52.683Z,3.15
2019-03-05T22:42:22.787Z,2.12
2019-03-05T22:45:52.887Z,1.67
2019-03-05T22:49:23.137Z,1.8
2019-03-05T22:52:53.307Z,2.66
2019-03-05T22:56:24.387Z,1.68
2019-03-05T22:59:54.428Z,2.42
2019-03-05T23:03:24.781Z,2.42
2019-03-05T23:06:55.078Z,1.12
2019-03-05T23:10:25.169Z,2.25
2019-03-05T23:13:55.378Z,2.33
2019-03-05T23:17:25.509Z,5.29
2019-03-05T23:20:55.788Z,0.86
2019-03-05T23:24:26.159Z,3.64
2019-03-05T23:27:56.279Z,1.53
2019-03-05T23:31:26.449Z,1.59
2019-03-05T23:34:56.649Z,0.45
2019-03-05T23:38:26.893Z,1.73
2019-03-05T23:41:56.990Z,2.19
2019-03-05T23:45:27.439Z,0.53
2019-03-05T23:48:57.630Z,1.55
2019-03-05T23:52:27.760Z,1.14
2019-03-05T23:55:57.900Z,1.25
2019-03-05T23:59:28.991Z,1.3
